Pagina principale
METAR-TAF:

METAR-TAF

Aeroporti :

Aeroporto Internazionale Re Mswati III

Manzini, Swaziland

latitudine: 26-21-24S, longitudine: 031-43-01E, altezza: 324 m

Osservazione

Il bollettino è stato emesso 9 ore e 48 minuti fa, alle 14:00 UTC
Vento 4 kt da sud/sud-est
Temperature 23°C
Umidità 33%
Pressione 1024 hPa
Visibilità 10 km o più
nessuna nube inferiore a 1500 m e nessun cumulonembo

METAR: FDSK 161400Z 15004KT CAVOK 23/06 Q1024 NOSIG

Ora: 01:48 (23:48 UTC)

Previsione

Il bollettino è stato emesso 13 ore e 48 minuti fa, alle 10:00 UTC
Previsione valida dal 16 alle 12 UTC al 16 alle 18 UTC
Vento 7 kt da est/nord-est
Visibilità 10 km o più
nessuna nube inferiore a 1500 m e nessun cumulonembo

TAF: FDSK 161000Z 1612/1618 06007KT CAVOK

Osservazioni e previsioni meteorologiche di più di 4000 aeroporti (messaggi METAR e TAF).

Le stazioni disponibili sono rappresentate dai dischi gialli e rossi sulla carta.

Puntare il mouse per vedere il nome della stazione.

Clicca sopra per visualizzare le osservazioni e previsioni meteorologiche.

Per cambiare la mappa : fare clic sui pulsanti verdi con una croce nera per ingrandire, il pulsante verde con un trattino per diminuire, o sulla freccia verde per le mappe adiacenti.


METAR-TAF: